Time;durP1;ratioP1;P1;durP2;ratioP2;P2;SDS_P1;SDS_P2;PMS_P1;PMS_P2;Temp;Humidity;BMP_temperature;BMP_pressure;BME280_temperature;BME280_humidity;BME280_pressure;Samples;Min_cycle;Max_cycle;Signal;HPM_P1;HPM_P2
2022/02/05 00:01:13;;;;;;;12.80;1.73;;;4.80;99.00;;;;;;5016059;28;20363;-76
2022/02/05 00:03:43;;;;;;;8.33;1.50;;;4.80;99.00;;;;;;4999851;28;20033;-76
2022/02/05 00:06:11;;;;;;;9.23;1.80;;;4.90;99.20;;;;;;5015873;28;20050;-75
2022/02/05 00:08:49;;;;;;;6.87;1.43;;;4.90;99.40;;;;;;5014583;28;20036;-75
2022/02/05 00:11:45;;;;;;;8.90;1.23;;;4.90;99.30;;;;;;5015790;28;20452;-76
2022/02/05 00:41:17;;;;;;;6.03;1.35;;;4.90;99.90;;;;;;5020423;28;20117;-75
2022/02/05 00:43:51;;;;;;;7.40;1.73;;;4.90;99.80;;;;;;5035053;28;20021;-76
2022/02/05 00:46:18;;;;;;;10.67;1.90;;;4.90;99.80;;;;;;5034964;28;20049;-75
2022/02/05 00:48:44;;;;;;;9.40;1.50;;;4.90;99.90;;;;;;5034941;28;20052;-75
2022/02/05 00:51:15;;;;;;;8.97;1.40;;;4.90;99.90;;;;;;5034808;28;20061;-75
2022/02/05 00:53:43;;;;;;;7.90;1.40;;;4.90;99.90;;;;;;5033754;28;20029;-76
2022/02/05 00:56:19;;;;;;;10.27;1.23;;;4.90;99.90;;;;;;5034773;28;20469;-75
2022/02/05 00:58:45;;;;;;;7.90;1.67;;;4.80;99.90;;;;;;5033557;28;20095;-75
2022/02/05 01:01:12;;;;;;;11.77;1.90;;;4.90;99.90;;;;;;5016918;28;20474;-75
2022/02/05 01:03:38;;;;;;;15.33;1.77;;;4.80;99.90;;;;;;5034559;28;20028;-75
2022/02/05 01:06:06;;;;;;;9.20;1.97;;;4.80;99.90;;;;;;5033313;28;20026;-75
2022/02/05 01:08:32;;;;;;;6.60;2.10;;;4.80;99.90;;;;;;5034395;28;20017;-75
2022/02/05 01:10:58;;;;;;;8.70;1.57;;;4.80;99.90;;;;;;5016754;28;20028;-75
2022/02/05 01:13:25;;;;;;;11.60;2.03;;;4.70;99.90;;;;;;5034309;28;20021;-76
2022/02/05 01:18:18;;;;;;;12.53;2.70;;;4.70;99.90;;;;;;5034744;28;20040;-75
2022/02/05 01:23:21;;;;;;;19.17;2.40;;;4.60;99.90;;;;;;5034521;28;20029;-75
2022/02/05 01:25:55;;;;;;;13.40;2.23;;;4.60;99.90;;;;;;5032910;28;20053;-75
2022/02/05 01:28:28;;;;;;;;;;;4.60;99.90;;;;;;5016771;28;20033;-75
2022/02/05 01:30:55;;;;;;;7.27;1.40;;;4.60;99.90;;;;;;5033972;28;19908;-75
2022/02/05 01:39:31;;;;;;;5.97;1.07;;;4.50;99.90;;;;;;5018361;28;20038;-75
2022/02/05 01:55:32;;;;;;;9.67;2.50;;;4.50;99.90;;;;;;5033510;28;20041;-76
2022/02/05 01:58:15;;;;;;;15.67;1.60;;;4.50;99.90;;;;;;5032654;28;20516;-75
2022/02/05 02:21:27;;;;;;;9.47;1.20;;;4.40;99.60;;;;;;5033401;28;20040;-76
2022/02/05 02:24:04;;;;;;;7.90;1.30;;;4.40;99.60;;;;;;5033245;28;20029;-75
2022/02/05 02:29:09;;;;;;;7.73;1.10;;;4.40;99.70;;;;;;5033135;28;20030;-75
2022/02/05 02:31:40;;;;;;;6.90;1.00;;;4.40;99.60;;;;;;5031885;28;20029;-75
2022/02/05 02:34:10;;;;;;;11.43;2.23;;;4.40;99.60;;;;;;5033164;28;20117;-75
2022/02/05 02:36:46;;;;;;;7.00;1.30;;;4.40;99.60;;;;;;5033260;28;20532;-75
2022/02/05 02:39:17;;;;;;;8.50;1.03;;;4.40;99.60;;;;;;5032831;28;20053;-76
2022/02/05 02:41:54;;;;;;;12.50;1.50;;;4.30;99.60;;;;;;5033243;28;20041;-75
2022/02/05 02:44:20;;;;;;;11.80;1.40;;;4.30;99.50;;;;;;5033033;28;20116;-75
2022/02/05 02:46:46;;;;;;;14.07;1.20;;;4.30;99.60;;;;;;5031761;28;20057;-76
2022/02/05 02:49:16;;;;;;;9.47;0.93;;;4.30;99.60;;;;;;5031715;28;20029;-75
2022/02/05 02:59:48;;;;;;;12.17;1.60;;;4.40;99.90;;;;;;5032875;28;20042;-75
2022/02/05 03:02:17;;;;;;;7.83;1.43;;;4.40;99.90;;;;;;5032890;28;20056;-75
2022/02/05 03:04:43;;;;;;;7.03;1.70;;;4.40;99.90;;;;;;5032904;28;20032;-75
2022/02/05 03:07:08;;;;;;;14.43;1.60;;;4.40;99.90;;;;;;5031668;28;20030;-75
2022/02/05 03:09:34;;;;;;;7.23;1.10;;;4.40;99.90;;;;;;5032886;28;20109;-75
2022/02/05 03:11:59;;;;;;;13.47;1.73;;;4.40;99.90;;;;;;5032869;28;20121;-75
2022/02/05 03:14:25;;;;;;;13.10;1.63;;;4.50;99.90;;;;;;5034512;28;20099;-75
2022/02/05 03:16:56;;;;;;;8.20;1.17;;;4.50;99.90;;;;;;5018711;28;20083;-76
2022/02/05 03:19:22;;;;;;;15.23;1.40;;;4.50;99.90;;;;;;5035208;28;20035;-75
2022/02/05 03:21:48;;;;;;;8.40;1.07;;;4.50;99.90;;;;;;5036667;28;20104;-75
2022/02/05 03:24:13;;;;;;;13.07;1.50;;;4.60;99.90;;;;;;5036498;28;20029;-75
2022/02/05 03:26:40;;;;;;;6.70;1.23;;;4.50;99.90;;;;;;5035118;28;20041;-75
2022/02/05 03:29:08;;;;;;;15.77;1.70;;;4.50;99.90;;;;;;5036293;28;20473;-75
2022/02/05 03:31:34;;;;;;;6.80;1.50;;;4.60;99.90;;;;;;5036270;28;20025;-76
2022/02/05 03:34:00;;;;;;;14.60;2.23;;;4.60;99.90;;;;;;5036293;28;20112;-75
2022/02/05 03:36:26;;;;;;;10.50;1.30;;;4.60;99.90;;;;;;5036238;28;20092;-76
2022/02/05 03:38:51;;;;;;;13.87;1.50;;;4.60;99.90;;;;;;5034933;28;20255;-75
2022/02/05 03:41:17;;;;;;;12.23;1.43;;;4.50;99.90;;;;;;5018656;28;20041;-75
2022/02/05 03:43:42;;;;;;;10.17;1.40;;;4.60;99.90;;;;;;5018471;28;20040;-75
2022/02/05 03:46:08;;;;;;;13.50;2.00;;;4.60;99.90;;;;;;5018407;28;20022;-75
2022/02/05 03:48:34;;;;;;;14.03;1.83;;;4.50;99.90;;;;;;5035094;28;20389;-75
2022/02/05 03:50:59;;;;;;;13.00;2.63;;;4.60;99.90;;;;;;5018436;28;20112;-75
2022/02/05 03:53:25;;;;;;;9.87;1.47;;;4.50;99.90;;;;;;5018483;28;20040;-76
2022/02/05 03:55:51;;;;;;;11.47;1.50;;;4.50;99.90;;;;;;5035952;28;20045;-75
2022/02/05 03:58:17;;;;;;;3.37;1.00;;;4.50;99.90;;;;;;5001893;28;20059;-76
2022/02/05 04:00:43;;;;;;;10.10;1.80;;;4.60;99.90;;;;;;5035755;28;20037;-75
2022/02/05 04:03:09;;;;;;;8.90;2.23;;;4.70;99.90;;;;;;5035732;28;20021;-75
2022/02/05 04:05:35;;;;;;;9.70;1.43;;;4.60;99.90;;;;;;5017994;28;20018;-75
2022/02/05 04:08:05;;;;;;;10.33;1.43;;;4.60;99.90;;;;;;5017882;28;20547;-75
2022/02/05 04:10:38;;;;;;;11.40;1.23;;;4.60;99.90;;;;;;5035906;28;20398;-75
2022/02/05 04:15:58;;;;;;;12.60;1.60;;;4.60;99.90;;;;;;5035602;28;20041;-76
2022/02/05 04:18:24;;;;;;;15.07;1.10;;;4.60;99.90;;;;;;5017803;28;20026;-76
2022/02/05 04:20:50;;;;;;;10.10;1.53;;;4.60;99.90;;;;;;5034170;28;20389;-75
2022/02/05 04:23:16;;;;;;;12.37;1.43;;;4.60;99.90;;;;;;5034274;28;20032;-75
2022/02/05 04:25:42;;;;;;;16.27;2.67;;;4.60;99.90;;;;;;5034940;28;20108;-76
2022/02/05 04:28:08;;;;;;;12.70;1.60;;;4.60;99.90;;;;;;5017641;28;20087;-75
2022/02/05 04:30:34;;;;;;;16.23;2.67;;;4.50;99.80;;;;;;5035335;28;20485;-75
2022/02/05 04:33:00;;;;;;;10.43;1.27;;;4.60;99.90;;;;;;5035249;28;20477;-75
2022/02/05 04:35:26;;;;;;;10.10;1.57;;;4.60;99.90;;;;;;5034045;28;20037;-75
2022/02/05 04:37:54;;;;;;;10.33;1.50;;;4.50;99.90;;;;;;5035069;28;20033;-76
2022/02/05 04:45:52;;;;;;;10.50;1.70;;;4.50;99.90;;;;;;5035079;28;20034;-76
2022/02/05 04:59:06;;;;;;;10.83;1.53;;;4.40;99.90;;;;;;5034683;28;20073;-75
2022/02/05 05:04:32;;;;;;;16.77;1.70;;;4.50;99.90;;;;;;5034905;28;20045;-76
2022/02/05 05:12:34;;;;;;;10.40;1.25;;;4.50;99.90;;;;;;5034643;28;20033;-75
2022/02/05 05:20:52;;;;;;;9.83;1.67;;;4.60;99.90;;;;;;5034335;28;20087;-75
2022/02/05 05:23:18;;;;;;;9.80;1.20;;;4.60;99.90;;;;;;5034226;28;20030;-75
2022/02/05 05:25:43;;;;;;;17.60;1.53;;;4.70;99.90;;;;;;5034313;28;20033;-76
2022/02/05 05:28:09;;;;;;;8.03;1.07;;;4.70;99.90;;;;;;5034090;28;20251;-76
2022/02/05 05:30:34;;;;;;;14.23;1.37;;;4.70;99.90;;;;;;5048466;28;20100;-75
2022/02/05 05:33:00;;;;;;;7.63;1.37;;;4.90;99.90;;;;;;5068009;28;20086;-75
2022/02/05 05:35:26;;;;;;;22.70;1.63;;;4.80;99.90;;;;;;5049983;28;20056;-79
2022/02/05 05:37:52;;;;;;;10.67;1.63;;;4.80;99.90;;;;;;5045020;28;20477;-76
2022/02/05 05:40:20;;;;;;;7.67;1.17;;;4.80;99.90;;;;;;5044190;28;20045;-75
2022/02/05 05:42:53;;;;;;;12.40;1.30;;;4.90;99.90;;;;;;5052758;28;20021;-75
2022/02/05 05:53:01;;;;;;;15.20;1.43;;;4.80;99.70;;;;;;5052829;28;20167;-75
2022/02/05 05:55:28;;;;;;;14.17;2.07;;;4.70;99.60;;;;;;5053592;28;20112;-75
2022/02/05 05:57:55;;;;;;;8.80;1.53;;;4.70;99.60;;;;;;5053802;28;20477;-75
2022/02/05 06:00:20;;;;;;;10.40;2.00;;;4.70;99.60;;;;;;5052293;28;20392;-75
2022/02/05 06:02:46;;;;;;;8.50;1.57;;;4.60;99.60;;;;;;5053517;28;20159;-76
2022/02/05 06:05:12;;;;;;;16.73;2.90;;;4.60;99.70;;;;;;5053573;28;20029;-76
2022/02/05 06:07:37;;;;;;;11.90;1.57;;;4.50;99.70;;;;;;5052265;28;20029;-75
2022/02/05 06:10:04;;;;;;;5.97;1.43;;;4.50;99.80;;;;;;5053421;28;20064;-75
2022/02/05 06:12:29;;;;;;;12.40;1.43;;;4.50;99.90;;;;;;5053586;28;20087;-75
2022/02/05 06:14:57;;;;;;;9.47;1.30;;;4.50;99.90;;;;;;5052013;28;20439;-76
2022/02/05 06:17:25;;;;;;;9.87;2.27;;;4.40;99.90;;;;;;5035619;28;20033;-75
2022/02/05 06:19:51;;;;;;;8.37;1.73;;;4.70;99.90;;;;;;5052078;28;20064;-76
2022/02/05 06:22:16;;;;;;;13.87;1.47;;;4.50;99.90;;;;;;5017561;28;20038;-76
2022/02/05 06:24:42;;;;;;;16.83;1.97;;;4.50;99.90;;;;;;5031936;28;20099;-75
2022/02/05 06:27:08;;;;;;;14.80;2.60;;;4.50;99.90;;;;;;5031747;28;20032;-75
2022/02/05 06:29:34;;;;;;;9.10;1.73;;;4.50;99.90;;;;;;5032377;28;20535;-76
2022/02/05 06:32:00;;;;;;;9.73;1.50;;;4.50;99.90;;;;;;5015602;28;20030;-75
2022/02/05 06:34:26;;;;;;;12.57;1.83;;;4.50;99.90;;;;;;5033208;28;20079;-76
2022/02/05 06:36:52;;;;;;;13.07;1.43;;;4.50;99.90;;;;;;5031131;28;20038;-75
2022/02/05 06:39:18;;;;;;;14.00;1.40;;;4.50;99.90;;;;;;5032811;28;20045;-75
2022/02/05 06:41:44;;;;;;;16.20;1.87;;;4.50;99.90;;;;;;5033120;28;20059;-75
2022/02/05 06:44:11;;;;;;;16.20;2.10;;;4.50;99.90;;;;;;5031772;28;20079;-75
2022/02/05 06:46:37;;;;;;;12.23;1.93;;;4.50;99.90;;;;;;5033012;28;20029;-75
2022/02/05 06:49:03;;;;;;;5.43;1.57;;;4.60;99.90;;;;;;5034553;28;20037;-75
2022/02/05 06:51:28;;;;;;;8.70;1.40;;;4.60;99.90;;;;;;5035836;28;20029;-76
2022/02/05 06:53:54;;;;;;;10.53;1.53;;;4.60;99.90;;;;;;5035834;28;20037;-75
2022/02/05 06:56:19;;;;;;;8.77;1.00;;;4.60;99.90;;;;;;5035908;28;20041;-75
2022/02/05 06:58:45;;;;;;;12.73;2.30;;;4.50;99.90;;;;;;5036837;28;20026;-75
2022/02/05 07:01:11;;;;;;;10.30;1.57;;;4.70;99.90;;;;;;5035825;28;20030;-75
2022/02/05 07:03:36;;;;;;;16.60;2.13;;;4.60;99.90;;;;;;5035748;28;20034;-75
2022/02/05 07:06:02;;;;;;;7.73;1.63;;;4.60;99.90;;;;;;5036735;28;20031;-75
2022/02/05 07:08:27;;;;;;;13.53;2.27;;;4.60;99.90;;;;;;5035703;28;20473;-75
2022/02/05 07:10:53;;;;;;;15.10;1.90;;;4.60;99.90;;;;;;5036711;28;20473;-75
2022/02/05 07:13:21;;;;;;;16.07;2.33;;;4.50;99.90;;;;;;5035663;28;20083;-75
2022/02/05 07:16:35;;;;;;;12.60;2.03;;;4.60;99.90;;;;;;5035516;28;20053;-75
2022/02/05 07:21:30;;;;;;;13.47;2.83;;;4.60;99.90;;;;;;5036622;28;20037;-75
2022/02/05 07:29:17;;;;;;;6.47;1.73;;;4.60;99.90;;;;;;5033672;28;20114;-75
2022/02/05 07:31:45;;;;;;;10.33;1.80;;;4.60;99.90;;;;;;5020902;28;20041;-75
2022/02/05 07:34:12;;;;;;;11.50;2.63;;;4.60;99.90;;;;;;5055012;28;20105;-75
2022/02/05 07:36:38;;;;;;;14.93;2.30;;;4.70;99.90;;;;;;5054795;28;20024;-75
2022/02/05 07:39:06;;;;;;;16.93;2.00;;;4.50;99.90;;;;;;5055181;28;20388;-75
2022/02/05 07:41:32;;;;;;;15.13;2.50;;;4.60;99.90;;;;;;5039087;28;20017;-75
2022/02/05 07:43:58;;;;;;;15.17;2.60;;;4.50;99.90;;;;;;5037982;28;20029;-75
2022/02/05 07:46:24;;;;;;;15.80;2.10;;;4.60;99.90;;;;;;5055899;28;20047;-74
2022/02/05 07:48:50;;;;;;;16.77;2.47;;;4.70;99.90;;;;;;5054934;28;20029;-74
2022/02/05 07:51:15;;;;;;;11.77;2.00;;;4.60;99.90;;;;;;5020992;28;20028;-75
2022/02/05 07:53:41;;;;;;;13.63;2.60;;;4.60;99.90;;;;;;5054889;28;20499;-75
2022/02/05 07:56:07;;;;;;;10.93;2.20;;;4.60;99.90;;;;;;5055592;28;20017;-76
2022/02/05 07:58:34;;;;;;;10.70;2.40;;;4.60;99.90;;;;;;5037861;28;20082;-75
2022/02/05 08:01:04;;;;;;;12.17;2.37;;;4.60;99.90;;;;;;5054118;28;20032;-75
2022/02/05 08:03:30;;;;;;;23.90;3.17;;;4.60;99.90;;;;;;5036941;28;20020;-75
2022/02/05 08:06:01;;;;;;;12.10;2.13;;;4.60;99.90;;;;;;5037113;28;20021;-75
2022/02/05 08:08:30;;;;;;;12.23;2.57;;;4.60;99.90;;;;;;5054795;28;20009;-75
2022/02/05 08:11:09;;;;;;;10.60;2.10;;;4.60;99.90;;;;;;5054913;28;20028;-75
2022/02/05 08:13:35;;;;;;;9.23;2.47;;;4.50;99.90;;;;;;5036669;28;20072;-74
2022/02/05 08:18:45;;;;;;;16.47;2.53;;;4.50;99.90;;;;;;5054180;28;20508;-75
2022/02/05 08:21:11;;;;;;;9.07;2.60;;;4.60;99.90;;;;;;5037579;28;20169;-74
2022/02/05 08:23:36;;;;;;;10.60;2.83;;;4.60;99.90;;;;;;5037659;28;20030;-76
2022/02/05 08:26:04;;;;;;;12.43;2.53;;;4.60;99.90;;;;;;5037692;28;20484;-74
2022/02/05 08:28:30;;;;;;;18.03;2.33;;;4.60;99.90;;;;;;5055211;28;20469;-74
2022/02/05 08:30:55;;;;;;;11.87;2.77;;;4.70;99.90;;;;;;5055237;28;20113;-74
2022/02/05 08:33:22;;;;;;;23.40;3.23;;;4.60;99.90;;;;;;5037106;28;20036;-74
2022/02/05 08:35:50;;;;;;;15.73;3.53;;;4.60;99.90;;;;;;5054960;28;20389;-75
2022/02/05 08:38:19;;;;;;;12.20;2.83;;;4.60;99.90;;;;;;5055007;28;20029;-74
2022/02/05 08:40:45;;;;;;;10.43;2.70;;;4.70;99.90;;;;;;5054804;28;20473;-75
2022/02/05 08:43:10;;;;;;;13.77;3.63;;;4.70;99.90;;;;;;5055024;28;20029;-75
2022/02/05 08:45:38;;;;;;;12.33;3.13;;;4.70;99.90;;;;;;5054807;28;20469;-75
2022/02/05 08:48:04;;;;;;;13.53;3.00;;;4.70;99.90;;;;;;5054784;28;20036;-75
2022/02/05 08:50:30;;;;;;;19.80;4.00;;;4.70;99.90;;;;;;5036963;28;20061;-74
2022/02/05 08:52:56;;;;;;;15.77;3.33;;;4.80;99.90;;;;;;5054818;28;20466;-75
2022/02/05 08:55:22;;;;;;;11.40;3.70;;;4.90;99.90;;;;;;5054957;28;20141;-75
2022/02/05 08:57:49;;;;;;;9.93;2.30;;;4.90;99.90;;;;;;5054624;28;20460;-75
2022/02/05 09:00:22;;;;;;;17.37;3.27;;;5.00;99.90;;;;;;5036766;28;20021;-74
2022/02/05 09:02:55;;;;;;;9.95;2.28;;;5.20;99.90;;;;;;5054514;28;20029;-75
2022/02/05 09:05:43;;;;;;;19.65;4.30;;;5.20;99.90;;;;;;5054128;28;20430;-75
2022/02/05 09:08:19;;;;;;;15.40;3.70;;;5.20;99.80;;;;;;5023125;28;20090;-74
2022/02/05 09:10:56;;;;;;;17.00;3.60;;;5.40;99.80;;;;;;5053991;28;20029;-74
2022/02/05 09:14:13;;;;;;;10.73;3.30;;;5.50;99.90;;;;;;5054010;28;20024;-74
2022/02/05 09:16:13;;;;;;;12.73;3.10;;;5.60;99.90;;;;;;5026332;28;20044;-75
2022/02/05 09:18:40;;;;;;;10.70;2.77;;;5.70;99.70;;;;;;5036283;28;20017;-74
2022/02/05 09:21:07;;;;;;;15.50;3.97;;;5.70;99.50;;;;;;5054100;28;20469;-75
2022/02/05 09:23:38;;;;;;;15.03;3.03;;;5.80;99.30;;;;;;5054130;28;20025;-74
2022/02/05 09:26:03;;;;;;;13.67;3.13;;;5.80;99.20;;;;;;5054164;28;20078;-74
2022/02/05 09:28:29;;;;;;;11.83;3.07;;;5.90;99.30;;;;;;5054123;28;20029;-76
2022/02/05 09:33:35;;;;;;;10.97;2.30;;;6.10;98.70;;;;;;5054121;28;20033;-74
2022/02/05 09:36:00;;;;;;;17.30;2.77;;;6.10;99.00;;;;;;5053855;28;20052;-76
2022/02/05 09:38:27;;;;;;;10.73;2.40;;;6.20;98.50;;;;;;5053917;28;20119;-74
2022/02/05 09:40:52;;;;;;;13.07;2.67;;;6.20;98.40;;;;;;5035896;28;20044;-75
2022/02/05 09:43:26;;;;;;;16.00;2.97;;;6.30;98.30;;;;;;5036052;28;20017;-74
2022/02/05 09:45:52;;;;;;;8.52;2.50;;;6.40;98.50;;;;;;5036002;28;20040;-75
2022/02/05 09:48:19;;;;;;;12.93;2.97;;;6.60;98.20;;;;;;5053452;28;20064;-74
2022/02/05 09:50:46;;;;;;;10.07;2.13;;;6.70;98.30;;;;;;5053407;28;20037;-75
2022/02/05 09:53:16;;;;;;;13.93;2.60;;;6.80;98.20;;;;;;5019157;28;20037;-75
2022/02/05 09:55:46;;;;;;;13.90;2.20;;;6.90;97.90;;;;;;5053362;28;20033;-76
2022/02/05 09:58:14;;;;;;;12.83;1.80;;;7.00;97.40;;;;;;5035517;28;20519;-75
2022/02/05 10:00:40;;;;;;;15.67;2.30;;;7.20;96.60;;;;;;5053451;28;20037;-75
2022/02/05 10:03:24;;;;;;;16.07;2.87;;;7.30;96.20;;;;;;5053501;28;20405;-78
2022/02/05 10:06:23;;;;;;;15.73;2.33;;;7.60;97.10;;;;;;5053085;28;20452;-78
2022/02/05 10:09:10;;;;;;;14.77;3.03;;;8.00;97.00;;;;;;5053561;28;20044;-77
2022/02/05 10:11:47;;;;;;;12.53;2.17;;;8.70;96.10;;;;;;5035733;28;20369;-73
2022/02/05 10:14:14;;;;;;;11.25;1.90;;;9.20;95.10;;;;;;5053614;28;20381;-73
2022/02/05 10:16:40;;;;;;;11.75;1.80;;;9.70;95.60;;;;;;5035401;28;20021;-78
2022/02/05 10:19:06;;;;;;;13.15;2.25;;;10.30;93.20;;;;;;5053923;28;20033;-77
2022/02/05 10:21:32;;;;;;;7.47;1.42;;;10.80;93.50;;;;;;5034591;28;20029;-74
2022/02/05 10:24:06;;;;;;;10.88;1.75;;;11.20;91.10;;;;;;5051093;28;20102;-77
2022/02/05 10:26:37;;;;;;;11.70;1.85;;;11.60;89.00;;;;;;5052371;28;20136;-78
2022/02/05 10:29:06;;;;;;;5.30;1.00;;;11.80;85.80;;;;;;5053040;28;20033;-77
2022/02/05 10:32:14;;;;;;;7.38;1.40;;;11.80;81.40;;;;;;5053126;28;20481;-77
2022/02/05 10:34:54;;;;;;;7.75;1.27;;;11.40;76.30;;;;;;5034089;28;20025;-77
2022/02/05 10:37:25;;;;;;;7.50;1.65;;;11.30;77.10;;;;;;5034945;28;20063;-75
2022/02/05 10:45:15;;;;;;;10.00;1.08;;;11.70;75.50;;;;;;5053295;28;20036;-75
2022/02/05 10:47:58;;;;;;;6.05;1.00;;;11.50;75.10;;;;;;5034568;28;20036;-75
2022/02/05 10:50:27;;;;;;;10.65;1.30;;;11.50;74.50;;;;;;5035047;28;20481;-79
2022/02/05 10:52:58;;;;;;;9.00;0.90;;;11.30;74.10;;;;;;5053129;28;20033;-78
2022/02/05 10:58:30;;;;;;;8.77;1.63;;;11.40;76.10;;;;;;5052287;28;20127;-83
2022/02/05 11:07:20;;;;;;;10.98;1.60;;;11.50;74.80;;;;;;5053549;28;20032;-76
2022/02/05 11:09:46;;;;;;;8.88;1.55;;;11.60;74.80;;;;;;5034815;28;20017;-78
2022/02/05 11:15:06;;;;;;;9.63;1.33;;;11.50;73.70;;;;;;5037938;28;20044;-80
2022/02/05 11:20:15;;;;;;;9.57;1.63;;;11.00;72.90;;;;;;5052636;28;20462;-76
2022/02/05 11:22:55;;;;;;;9.75;1.40;;;10.90;73.10;;;;;;5034684;28;20457;-77
2022/02/05 11:25:22;;;;;;;8.45;1.30;;;10.60;72.60;;;;;;5052527;28;20024;-79
2022/02/05 11:27:50;;;;;;;14.00;2.45;;;10.30;73.10;;;;;;5034751;28;20067;-79
2022/02/05 11:30:29;;;;;;;12.77;1.70;;;10.10;73.90;;;;;;5034756;28;20051;-79
2022/02/05 11:32:59;;;;;;;9.10;1.70;;;10.00;75.60;;;;;;5052511;28;20053;-79
2022/02/05 11:35:32;;;;;;;11.13;1.60;;;10.10;76.90;;;;;;5036648;28;20051;-79
2022/02/05 11:38:00;;;;;;;11.75;1.30;;;10.40;76.80;;;;;;5038323;28;20028;-82
2022/02/05 11:40:41;;;;;;;12.88;1.92;;;10.50;74.90;;;;;;5038071;28;20041;-82
2022/02/05 11:43:29;;;;;;;11.63;1.75;;;10.50;74.20;;;;;;5055973;28;20422;-77
2022/02/05 11:46:04;;;;;;;10.90;1.90;;;10.30;74.30;;;;;;5055995;28;20377;-78
2022/02/05 11:48:59;;;;;;;7.40;1.13;;;10.10;74.40;;;;;;5056009;28;20021;-81
2022/02/05 11:51:47;;;;;;;8.27;2.03;;;9.80;74.50;;;;;;5055881;28;20032;-78
2022/02/05 11:54:15;;;;;;;10.20;1.63;;;9.70;76.00;;;;;;5038060;28;20021;-79
2022/02/05 11:59:21;;;;;;;10.88;1.63;;;10.10;76.90;;;;;;5055936;28;20056;-75
2022/02/05 12:01:47;;;;;;;8.77;1.38;;;10.30;76.30;;;;;;5055598;28;20025;-81
2022/02/05 12:04:18;;;;;;;11.75;1.65;;;10.80;77.50;;;;;;5022506;28;20404;-76
2022/02/05 12:06:47;;;;;;;13.77;2.20;;;11.50;77.00;;;;;;5075545;28;20036;-76
2022/02/05 12:09:43;;;;;;;6.45;0.98;;;11.90;74.30;;;;;;5057649;28;20024;-80
2022/02/05 12:15:11;;;;;;;8.60;1.42;;;12.50;71.80;;;;;;5075452;28;20025;-78
2022/02/05 12:18:02;;;;;;;6.70;1.13;;;12.80;69.30;;;;;;5047523;28;20093;-80
2022/02/05 12:20:31;;;;;;;9.48;1.45;;;13.00;67.30;;;;;;5037181;28;20477;-78
2022/02/05 12:25:56;;;;;;;9.43;1.38;;;13.80;65.30;;;;;;5055464;28;20029;-80
2022/02/05 12:28:42;;;;;;;12.32;1.30;;;14.20;63.80;;;;;;5055253;28;20102;-82
2022/02/05 12:31:30;;;;;;;8.38;1.38;;;14.10;61.50;;;;;;5055422;28;20444;-85
2022/02/05 12:34:02;;;;;;;9.95;2.03;;;13.70;62.60;;;;;;5042385;28;20048;-79
2022/02/05 12:36:37;;;;;;;6.78;1.27;;;13.60;62.80;;;;;;5037557;28;20032;-76
2022/02/05 12:39:07;;;;;;;5.55;1.15;;;13.90;63.90;;;;;;5036797;28;20077;-77
2022/02/05 12:41:35;;;;;;;9.88;1.50;;;14.50;64.80;;;;;;5054999;28;20021;-80
2022/02/05 12:44:05;;;;;;;11.57;1.38;;;14.90;61.50;;;;;;5055006;28;20032;-80
2022/02/05 12:46:37;;;;;;;6.65;1.10;;;15.20;60.30;;;;;;5054530;28;20064;-76
2022/02/05 12:49:08;;;;;;;9.20;1.50;;;15.40;58.30;;;;;;5054818;28;20346;-76
2022/02/05 12:51:40;;;;;;;7.13;1.00;;;15.60;56.80;;;;;;5054582;28;20024;-74
2022/02/05 12:54:13;;;;;;;6.65;1.20;;;15.90;56.10;;;;;;5054738;28;20032;-77
2022/02/05 12:56:40;;;;;;;10.68;1.45;;;15.80;55.50;;;;;;5054625;28;20104;-76
2022/02/05 12:59:12;;;;;;;8.95;1.38;;;15.60;55.50;;;;;;5054687;28;20025;-75
2022/02/05 13:01:50;;;;;;;10.15;1.25;;;15.30;55.30;;;;;;5036886;28;20032;-75
2022/02/05 13:04:22;;;;;;;7.25;1.30;;;14.90;54.60;;;;;;5053999;28;20048;-73
2022/02/05 13:07:09;;;;;;;8.45;1.25;;;14.80;56.40;;;;;;5054321;28;20025;-73
2022/02/05 13:09:49;;;;;;;10.13;1.83;;;15.10;55.80;;;;;;5036557;28;20033;-76
2022/02/05 13:12:22;;;;;;;6.38;1.33;;;14.90;54.00;;;;;;5036700;28;20469;-76
2022/02/05 13:14:49;;;;;;;8.93;1.55;;;14.50;54.90;;;;;;5054453;28;20017;-76
2022/02/05 13:25:45;;;;;;;12.27;1.58;;;12.40;57.70;;;;;;5054452;28;20032;-75
2022/02/05 13:28:30;;;;;;;7.72;1.20;;;12.00;59.40;;;;;;5035804;28;20021;-77
2022/02/05 13:33:51;;;;;;;8.50;1.85;;;11.90;58.40;;;;;;5036217;28;20203;-77
2022/02/05 13:39:24;;;;;;;5.15;1.33;;;12.50;59.50;;;;;;5035637;28;20492;-75
2022/02/05 13:41:57;;;;;;;4.82;1.10;;;13.10;58.60;;;;;;5035799;28;20025;-77
2022/02/05 13:44:27;;;;;;;6.10;1.05;;;13.50;58.30;;;;;;5053677;28;20460;-76
2022/02/05 13:47:24;;;;;;;9.63;1.90;;;13.70;56.80;;;;;;5035966;28;20031;-76
2022/02/05 13:50:08;;;;;;;8.13;1.42;;;13.80;57.10;;;;;;5027172;28;20115;-77
2022/02/05 13:52:37;;;;;;;;;;;13.90;57.00;;;;;;5036350;28;20036;-77
2022/02/05 13:55:15;;;;;;;9.05;1.52;;;14.00;56.80;;;;;;5054048;28;19931;-79
2022/02/05 13:57:54;;;;;;;9.30;1.27;;;14.30;56.20;;;;;;5052432;28;20037;-77
2022/02/05 14:00:21;;;;;;;7.97;1.45;;;14.20;55.50;;;;;;5027806;28;20044;-78
2022/02/05 14:02:59;;;;;;;8.05;1.55;;;14.00;55.90;;;;;;5052057;28;20032;-78
2022/02/05 14:05:25;;;;;;;7.70;1.20;;;14.00;56.40;;;;;;5034959;28;20021;-77
2022/02/05 14:07:51;;;;;;;5.93;1.10;;;14.10;56.70;;;;;;5052915;28;20120;-84
2022/02/05 14:10:19;;;;;;;7.30;1.08;;;14.20;56.10;;;;;;5053172;28;20481;-81
2022/02/05 14:12:56;;;;;;;8.43;1.23;;;14.40;56.50;;;;;;5019187;28;20110;-77
2022/02/05 14:15:24;;;;;;;9.20;1.10;;;14.50;55.80;;;;;;5031251;28;20029;-77
2022/02/05 14:18:10;;;;;;;10.43;1.38;;;14.30;55.40;;;;;;5032824;28;20047;-78
2022/02/05 14:20:56;;;;;;;10.32;1.58;;;14.00;55.80;;;;;;5027875;28;20064;-78
2022/02/05 14:23:32;;;;;;;15.02;1.90;;;13.60;56.30;;;;;;5035763;28;20539;-78
2022/02/05 14:26:04;;;;;;;8.98;1.73;;;13.20;56.90;;;;;;5034624;28;20100;-78
2022/02/05 14:28:45;;;;;;;7.57;1.40;;;12.90;57.20;;;;;;5046090;28;20415;-77
2022/02/05 14:41:47;;;;;;;6.32;1.30;;;11.60;60.40;;;;;;5052137;28;20056;-79
2022/02/05 14:44:13;;;;;;;8.98;1.42;;;11.60;61.40;;;;;;5051696;28;20033;-78
2022/02/05 14:46:40;;;;;;;9.70;1.52;;;11.70;61.60;;;;;;5051593;28;20473;-77
2022/02/05 14:49:07;;;;;;;10.90;1.90;;;11.80;61.30;;;;;;5051432;28;20029;-78
2022/02/05 14:51:32;;;;;;;11.55;1.35;;;11.70;61.30;;;;;;5051216;28;20044;-76
2022/02/05 14:53:59;;;;;;;8.40;1.50;;;11.50;61.90;;;;;;5043130;28;20033;-76
2022/02/05 14:56:31;;;;;;;8.63;1.38;;;11.20;62.40;;;;;;5027313;28;20107;-77
2022/02/05 14:58:57;;;;;;;5.13;1.23;;;11.10;63.20;;;;;;5030613;28;20490;-76
2022/02/05 15:01:25;;;;;;;7.17;1.40;;;10.80;64.00;;;;;;5053838;28;20037;-77
2022/02/05 15:03:54;;;;;;;7.83;1.43;;;10.60;64.90;;;;;;5051905;28;20017;-76
2022/02/05 15:06:22;;;;;;;10.13;1.03;;;10.40;66.00;;;;;;5052610;28;20458;-77
2022/02/05 15:08:49;;;;;;;11.10;1.40;;;10.20;66.80;;;;;;5046829;28;20025;-76
2022/02/05 15:11:15;;;;;;;12.40;1.60;;;10.20;67.20;;;;;;5056240;28;20473;-76
2022/02/05 15:13:47;;;;;;;6.53;1.20;;;10.10;67.80;;;;;;5053001;28;20025;-81
2022/02/05 15:16:17;;;;;;;5.53;1.37;;;10.00;68.60;;;;;;5032353;28;20419;-77
2022/02/05 15:18:51;;;;;;;8.27;1.53;;;10.00;68.80;;;;;;5055291;28;20025;-76
2022/02/05 15:21:16;;;;;;;6.25;1.38;;;9.90;69.30;;;;;;5041305;28;20350;-77
2022/02/05 15:23:42;;;;;;;7.30;1.10;;;9.90;69.70;;;;;;5037191;28;20025;-76
2022/02/05 15:26:08;;;;;;;10.67;1.37;;;9.90;70.10;;;;;;5037958;28;20021;-80
2022/02/05 15:28:33;;;;;;;10.33;1.30;;;9.80;70.50;;;;;;5038465;28;20029;-79
2022/02/05 15:31:02;;;;;;;8.20;1.70;;;9.80;70.70;;;;;;5037956;28;20055;-77
2022/02/05 15:33:29;;;;;;;15.60;2.20;;;9.80;71.00;;;;;;5045748;28;20032;-78
2022/02/05 15:35:59;;;;;;;8.90;1.57;;;9.80;71.20;;;;;;5038642;28;20438;-77
2022/02/05 15:38:38;;;;;;;11.70;1.50;;;9.70;71.60;;;;;;5038451;28;20048;-76
2022/02/05 15:43:53;;;;;;;11.03;1.50;;;9.60;72.20;;;;;;5038187;28;20029;-78
2022/02/05 15:46:20;;;;;;;11.00;1.27;;;9.50;72.50;;;;;;5055148;28;20044;-78
2022/02/05 15:48:46;;;;;;;7.20;1.80;;;9.50;72.80;;;;;;5037990;28;20115;-78
2022/02/05 15:51:12;;;;;;;9.23;1.43;;;9.40;73.20;;;;;;5055881;28;20342;-78
2022/02/05 15:54:01;;;;;;;8.47;1.50;;;9.30;73.70;;;;;;5038039;28;20037;-77
2022/02/05 15:58:52;;;;;;;5.63;1.30;;;9.10;74.20;;;;;;5055995;28;20036;-78
2022/02/05 16:01:18;;;;;;;8.83;1.63;;;9.00;74.50;;;;;;5038744;28;20036;-78
2022/02/05 16:03:43;;;;;;;9.00;1.70;;;9.00;74.80;;;;;;5037756;28;20037;-78
2022/02/05 16:06:09;;;;;;;7.20;1.40;;;8.90;75.10;;;;;;5055108;28;20027;-80
2022/02/05 16:08:35;;;;;;;10.20;1.90;;;8.90;75.30;;;;;;5021590;28;20020;-79
2022/02/05 16:11:01;;;;;;;7.67;1.57;;;8.80;75.20;;;;;;5056328;28;20053;-78
2022/02/05 16:13:26;;;;;;;10.93;1.63;;;8.80;75.40;;;;;;5037932;28;20033;-80
2022/02/05 16:15:52;;;;;;;11.93;1.60;;;8.80;76.20;;;;;;5005046;28;20047;-77
2022/02/05 16:18:18;;;;;;;9.17;1.53;;;8.80;75.70;;;;;;5055578;28;20025;-80